Contact Us:
Email: info@sawbill.com
Phone: (218)663-7150
Fax: (218)663-7980
Mail: 4620 Sawbill Trail
Box 2129
Tofte, MN 55615


Powered by
Movable Type 3.15
 
Sawbill Weather History Archives: March 2009
Current Sawbill Weather History | « February 2009 | April 2009 »


Date

High
Temperature

Low
Temperature

Barometric
Pressure

Relative
Humidity 7AM

9 AM
Temperature

Moisture

Snow

3/31/09 32 26 29.32 97% 32 1" 9"
3/30/09 35 24 29.85 75% 27 Trace Trace
3/29/09 32 9 30.09 55% 24 0
3/28/09 29 5 29.77 79% 13 0
3/27/09 27 11 29.89 62% 14 0
3/26/09 25 14 30.03 59% 17 Trace Trace
3/25/09 35 20 29.74 67% 21 Trace Trace
3/24/09 35 31 29.44 98% 31 .4" Trace
3/23/09 32 27 29.83 89% 31 .3" Ice
3/22/09 34 26 30.09 80% 27 .05" Ice
3/21/09 37 24 30.42 53% 26 0
3/20/09 29 7 29.96 92% 29 .19" 2"
3/19/09 26 7 30.30 60% 7 0
3/18/09 29 9 30.36 49% 10 0
3/17/09 48 26 30.03 53% 27 0
3/16/09 51 27 29.97 55% 37 0
3/15/09 46 24 29.97 82% 29 0
3/14/09 48 24 29.91 74% 24 0
3/13/09 31 5 29.88 56% 27 0
3/12/09 13 -13 30.15 75% 5 0
3/11/09 5 -13 30.42 75% -13 0
3/10/09 27 -3 29.97 75% -3 .8" 9.5"
3/9/09 35 8 29.94 54% 25 0
3/8/09 12 7 30.01 61% 7 0
3/7/09 27 3 30.00 83% 14 Trace Trace
3/6/09 41 22 29.94 74% 22 0
3/5/09 39 28 29.60 63% 32 0
3/4/09 31 7 29.62 61% 31 0
3/3/09 24 -3 30.03 52% 7 0
3/2/09 17 -21 30.27 47% -3 0
3/1/09 9 -22 30.45 51% -21 0
 


Home I Trip Planning I Rentals and Outfitting I Reservations I Campgrounds I Sawbill Store I Sawbill News I Contact

© 1997 - 2017, Sawbill Canoe Outfitters, Inc. I Privacy Policy